Time;durP1;ratioP1;P1;durP2;ratioP2;P2;SDS_P1;SDS_P2;PMS_P1;PMS_P2;Temp;Humidity;BMP_temperature;BMP_pressure;BME280_temperature;BME280_humidity;BME280_pressure;Samples;Min_cycle;Max_cycle;Signal;HPM_P1;HPM_P2
2022/03/18 00:02:17;;;;;;;40.20;20.95;;;;;;;;;;4993872;28;20023;-56
2022/03/18 00:04:43;;;;;;;43.97;21.70;;;;;;;;;;4994123;28;20057;-50
2022/03/18 00:07:09;;;;;;;42.00;21.58;;;;;;;;;;4993468;28;20033;-52
2022/03/18 00:09:36;;;;;;;41.03;21.23;;;;;;;;;;4994032;28;20027;-54
2022/03/18 00:12:02;;;;;;;41.90;21.30;;;;;;;;;;4993908;28;20029;-51
2022/03/18 00:14:28;;;;;;;40.10;21.60;;;;;;;;;;4993797;28;20073;-48
2022/03/18 00:16:54;;;;;;;39.85;21.17;;;;;;;;;;4993871;28;20125;-55
2022/03/18 00:19:20;;;;;;;35.53;20.15;;;;;;;;;;4993720;28;20041;-52
2022/03/18 00:21:47;;;;;;;40.85;21.15;;;;;;;;;;4993728;28;20468;-52
2022/03/18 00:24:13;;;;;;;44.05;23.52;;;;;;;;;;4993983;28;20031;-54
2022/03/18 00:26:39;;;;;;;38.80;22.63;;;;;;;;;;4993239;28;20035;-49
2022/03/18 00:29:05;;;;;;;43.85;22.67;;;;;;;;;;4993962;28;20031;-52
2022/03/18 00:31:31;;;;;;;44.60;22.90;;;;;;;;;;4997058;28;20026;-50
2022/03/18 00:33:57;;;;;;;38.47;21.73;;;;;;;;;;4997456;28;20406;-52
2022/03/18 00:36:24;;;;;;;37.83;20.92;;;;;;;;;;4997577;28;20034;-52
2022/03/18 00:38:50;;;;;;;43.05;21.88;;;;;;;;;;4997587;28;20030;-53
2022/03/18 00:41:16;;;;;;;42.72;22.00;;;;;;;;;;4997050;28;20202;-52
2022/03/18 00:43:43;;;;;;;45.10;23.73;;;;;;;;;;4997597;28;20049;-54
2022/03/18 00:46:09;;;;;;;38.72;21.23;;;;;;;;;;4997363;28;20033;-54
2022/03/18 00:54:05;;;;;;;43.15;22.38;;;;;;;;;;4997174;28;20034;-48
2022/03/18 00:56:31;;;;;;;39.97;20.13;;;;;;;;;;4996934;28;20046;-48
2022/03/18 00:58:57;;;;;;;38.63;19.58;;;;;;;;;;4997383;28;20014;-49
2022/03/18 01:01:26;;;;;;;37.65;20.48;;;;;;;;;;4996948;28;20033;-51
2022/03/18 01:03:52;;;;;;;36.65;18.70;;;;;;;;;;4996953;28;20026;-53
2022/03/18 01:06:19;;;;;;;34.17;18.10;;;;;;;;;;4997054;28;20109;-53
2022/03/18 01:08:45;;;;;;;33.78;18.92;;;;;;;;;;4997229;28;20027;-49
2022/03/18 01:11:11;;;;;;;33.60;17.90;;;;;;;;;;4997491;28;20390;-54
2022/03/18 01:13:37;;;;;;;32.40;17.30;;;;;;;;;;4996748;28;20372;-54
2022/03/18 01:16:03;;;;;;;37.25;18.20;;;;;;;;;;4996427;28;20467;-55
2022/03/18 01:18:29;;;;;;;31.00;17.33;;;;;;;;;;4996969;28;20355;-55
2022/03/18 01:20:56;;;;;;;29.48;16.77;;;;;;;;;;4997060;28;20073;-54
2022/03/18 01:23:23;;;;;;;29.77;16.90;;;;;;;;;;4996511;28;20026;-52
2022/03/18 01:25:49;;;;;;;32.70;17.83;;;;;;;;;;4996744;28;20027;-49
2022/03/18 01:28:15;;;;;;;33.70;17.90;;;;;;;;;;4996446;28;20026;-53
2022/03/18 01:30:42;;;;;;;30.10;17.55;;;;;;;;;;4996660;28;20534;-53
2022/03/18 01:33:08;;;;;;;29.48;16.67;;;;;;;;;;4996418;28;20538;-50
2022/03/18 01:35:34;;;;;;;30.95;17.30;;;;;;;;;;4996692;28;20445;-50
2022/03/18 01:38:00;;;;;;;30.52;17.05;;;;;;;;;;4995242;28;20453;-51
2022/03/18 01:40:26;;;;;;;29.55;16.35;;;;;;;;;;4996475;28;20441;-54
2022/03/18 01:42:52;;;;;;;32.60;17.80;;;;;;;;;;4995608;28;20375;-50
2022/03/18 01:45:19;;;;;;;35.67;18.75;;;;;;;;;;4996130;28;20477;-53
2022/03/18 01:47:45;;;;;;;29.23;16.65;;;;;;;;;;4996140;28;20076;-55
2022/03/18 01:50:11;;;;;;;36.70;17.00;;;;;;;;;;4995750;28;20030;-52
2022/03/18 01:52:38;;;;;;;33.17;17.63;;;;;;;;;;4996288;28;20471;-55
2022/03/18 01:55:05;;;;;;;29.20;16.20;;;;;;;;;;4995868;28;20034;-52
2022/03/18 01:57:31;;;;;;;29.13;16.25;;;;;;;;;;4995559;28;20395;-51
2022/03/18 01:59:57;;;;;;;29.27;17.10;;;;;;;;;;4995975;28;20375;-49
2022/03/18 02:02:24;;;;;;;29.10;16.55;;;;;;;;;;4995825;28;20022;-47
2022/03/18 02:04:50;;;;;;;30.30;17.08;;;;;;;;;;4995621;28;20022;-52
2022/03/18 02:07:17;;;;;;;31.70;17.13;;;;;;;;;;4995734;28;20027;-50
2022/03/18 02:09:44;;;;;;;33.42;17.63;;;;;;;;;;4995700;28;20022;-49
2022/03/18 02:12:11;;;;;;;27.92;16.05;;;;;;;;;;4995711;28;20018;-55
2022/03/18 02:14:38;;;;;;;32.10;17.13;;;;;;;;;;4995522;28;20037;-50
2022/03/18 02:17:05;;;;;;;28.25;15.80;;;;;;;;;;4995720;28;20022;-52
2022/03/18 02:19:32;;;;;;;30.02;16.33;;;;;;;;;;4995384;28;20372;-51
2022/03/18 02:21:59;;;;;;;32.60;16.40;;;;;;;;;;4995938;28;20026;-52
2022/03/18 02:24:25;;;;;;;28.85;16.58;;;;;;;;;;4995877;28;20034;-53
2022/03/18 02:26:52;;;;;;;29.95;16.80;;;;;;;;;;4995011;28;20403;-49
2022/03/18 02:29:19;;;;;;;27.35;16.30;;;;;;;;;;4995561;28;20025;-51
2022/03/18 02:31:45;;;;;;;33.08;16.75;;;;;;;;;;4995539;28;20026;-53
2022/03/18 02:34:11;;;;;;;26.58;15.23;;;;;;;;;;4995215;28;20030;-53
2022/03/18 02:36:37;;;;;;;27.77;15.15;;;;;;;;;;4995134;28;20030;-51
2022/03/18 02:39:04;;;;;;;25.73;15.30;;;;;;;;;;4995853;28;20049;-53
2022/03/18 02:41:30;;;;;;;26.73;15.95;;;;;;;;;;4994624;28;20034;-54
2022/03/18 02:43:56;;;;;;;27.25;15.43;;;;;;;;;;4995310;28;20018;-52
2022/03/18 02:46:23;;;;;;;30.40;16.30;;;;;;;;;;4994849;28;20030;-54
2022/03/18 02:48:49;;;;;;;28.33;15.85;;;;;;;;;;4994905;28;20029;-54
2022/03/18 02:51:15;;;;;;;27.77;16.88;;;;;;;;;;4995215;28;20037;-51
2022/03/18 02:53:41;;;;;;;27.08;15.73;;;;;;;;;;4994762;28;20023;-50
2022/03/18 02:56:07;;;;;;;27.85;16.83;;;;;;;;;;4994704;28;20038;-55
2022/03/18 02:58:37;;;;;;;27.17;16.42;;;;;;;;;;4995030;28;20027;-52
2022/03/18 03:01:03;;;;;;;27.95;16.55;;;;;;;;;;4994721;28;20026;-54
2022/03/18 03:03:30;;;;;;;26.85;16.20;;;;;;;;;;4994531;28;20512;-50
2022/03/18 03:08:42;;;;;;;26.15;14.88;;;;;;;;;;4994260;28;20097;-50
2022/03/18 03:11:08;;;;;;;26.65;16.58;;;;;;;;;;4994482;28;20387;-50
2022/03/18 03:13:34;;;;;;;26.05;15.30;;;;;;;;;;4994771;28;20033;-55
2022/03/18 03:16:02;;;;;;;26.83;14.98;;;;;;;;;;4994139;28;20092;-55
2022/03/18 03:18:28;;;;;;;24.38;14.60;;;;;;;;;;4994681;28;20014;-51
2022/03/18 03:20:55;;;;;;;25.98;14.77;;;;;;;;;;4994538;28;20033;-51
2022/03/18 03:23:23;;;;;;;25.50;14.65;;;;;;;;;;4994346;28;20371;-47
2022/03/18 03:25:50;;;;;;;26.95;16.05;;;;;;;;;;4994523;28;20177;-54
2022/03/18 03:28:17;;;;;;;25.77;15.70;;;;;;;;;;4994711;28;20041;-49
2022/03/18 03:30:44;;;;;;;24.92;14.70;;;;;;;;;;4994524;28;20064;-50
2022/03/18 03:33:10;;;;;;;26.67;15.75;;;;;;;;;;4993336;28;20026;-52
2022/03/18 03:35:36;;;;;;;26.52;15.93;;;;;;;;;;4993313;28;20031;-52
2022/03/18 03:38:03;;;;;;;29.83;17.55;;;;;;;;;;4994148;28;20471;-54
2022/03/18 03:40:29;;;;;;;25.10;14.90;;;;;;;;;;4994658;28;20088;-52
2022/03/18 03:42:55;;;;;;;27.02;14.75;;;;;;;;;;4994063;28;20137;-49
2022/03/18 03:45:22;;;;;;;28.30;15.77;;;;;;;;;;4994007;28;20471;-51
2022/03/18 03:47:48;;;;;;;24.52;15.00;;;;;;;;;;4994344;28;20156;-56
2022/03/18 03:50:15;;;;;;;25.70;14.77;;;;;;;;;;4993949;28;20352;-48
2022/03/18 03:52:41;;;;;;;23.65;14.63;;;;;;;;;;4993971;28;20109;-52
2022/03/18 03:55:08;;;;;;;22.35;13.43;;;;;;;;;;4994240;28;20503;-51
2022/03/18 03:57:34;;;;;;;25.13;14.70;;;;;;;;;;4993627;28;20096;-50
2022/03/18 04:00:00;;;;;;;25.70;14.20;;;;;;;;;;4993975;28;20027;-49
2022/03/18 04:02:27;;;;;;;25.52;14.65;;;;;;;;;;4993832;28;20023;-52
2022/03/18 04:04:54;;;;;;;25.08;14.38;;;;;;;;;;4994743;28;20034;-52
2022/03/18 04:07:20;;;;;;;24.50;14.27;;;;;;;;;;4998238;28;20105;-52
2022/03/18 04:09:49;;;;;;;24.67;14.40;;;;;;;;;;4997910;28;20030;-50
2022/03/18 04:12:15;;;;;;;23.77;13.90;;;;;;;;;;4997584;28;20101;-52
2022/03/18 04:14:41;;;;;;;25.70;14.23;;;;;;;;;;4998058;28;20038;-51
2022/03/18 04:17:07;;;;;;;23.48;14.88;;;;;;;;;;4997767;28;20084;-52
2022/03/18 04:19:33;;;;;;;26.02;15.23;;;;;;;;;;4998108;28;20022;-51
2022/03/18 04:22:09;;;;;;;23.40;14.88;;;;;;;;;;4997971;28;20077;-58
2022/03/18 04:24:39;;;;;;;25.27;14.65;;;;;;;;;;4997190;28;20022;-49
2022/03/18 04:27:05;;;;;;;25.13;14.45;;;;;;;;;;4997486;28;20036;-51
2022/03/18 04:29:31;;;;;;;21.95;13.57;;;;;;;;;;4997842;28;20054;-53
2022/03/18 04:31:58;;;;;;;24.38;14.27;;;;;;;;;;4997366;28;20038;-51
2022/03/18 04:34:25;;;;;;;25.25;13.90;;;;;;;;;;4997850;28;20438;-50
2022/03/18 04:36:51;;;;;;;25.75;15.38;;;;;;;;;;4997487;28;20460;-52
2022/03/18 04:39:17;;;;;;;23.50;13.07;;;;;;;;;;4996528;28;20471;-51
2022/03/18 04:41:43;;;;;;;25.13;14.18;;;;;;;;;;4997525;28;20026;-52
2022/03/18 04:44:09;;;;;;;24.77;14.68;;;;;;;;;;4997194;28;20044;-48
2022/03/18 04:46:35;;;;;;;25.77;15.10;;;;;;;;;;4997130;28;20105;-49
2022/03/18 04:49:02;;;;;;;24.52;14.77;;;;;;;;;;4996831;28;20026;-51
2022/03/18 04:51:28;;;;;;;24.10;14.85;;;;;;;;;;4997105;28;20033;-51
2022/03/18 04:53:54;;;;;;;27.23;15.57;;;;;;;;;;4996950;28;20030;-51
2022/03/18 04:59:10;;;;;;;26.30;15.82;;;;;;;;;;4977589;28;20471;-49
2022/03/18 05:01:36;;;;;;;25.38;14.90;;;;;;;;;;4997192;28;20027;-52
2022/03/18 05:04:02;;;;;;;27.38;15.68;;;;;;;;;;4997142;28;20451;-50
2022/03/18 05:06:28;;;;;;;26.58;15.32;;;;;;;;;;4996446;28;20537;-54
2022/03/18 05:08:54;;;;;;;26.52;15.52;;;;;;;;;;4997004;28;20036;-55
2022/03/18 05:11:20;;;;;;;23.63;14.93;;;;;;;;;;4996941;28;20033;-53
2022/03/18 05:13:46;;;;;;;27.90;14.50;;;;;;;;;;4996353;28;20028;-50
2022/03/18 05:16:14;;;;;;;25.33;15.05;;;;;;;;;;4995410;28;20034;-54
2022/03/18 05:18:41;;;;;;;29.13;16.25;;;;;;;;;;4996920;28;20108;-52
2022/03/18 05:21:07;;;;;;;24.25;14.65;;;;;;;;;;4996290;28;20030;-51
2022/03/18 05:23:33;;;;;;;25.63;15.65;;;;;;;;;;4996496;28;20023;-55
2022/03/18 05:25:59;;;;;;;31.80;17.63;;;;;;;;;;4995890;28;20475;-54
2022/03/18 05:28:26;;;;;;;29.17;17.38;;;;;;;;;;4995454;28;20026;-54
2022/03/18 05:30:53;;;;;;;32.35;17.42;;;;;;;;;;4996525;28;20030;-56
2022/03/18 05:33:19;;;;;;;31.55;17.63;;;;;;;;;;4996300;28;20022;-54
2022/03/18 05:35:46;;;;;;;37.47;19.42;;;;;;;;;;4996198;28;20034;-57
2022/03/18 05:38:12;;;;;;;33.05;19.27;;;;;;;;;;4995289;28;20081;-55
2022/03/18 05:40:38;;;;;;;31.77;19.05;;;;;;;;;;4995937;28;20407;-53
2022/03/18 05:43:04;;;;;;;26.45;15.23;;;;;;;;;;4995975;28;20021;-52
2022/03/18 05:45:30;;;;;;;25.25;14.82;;;;;;;;;;4996031;28;20027;-53
2022/03/18 05:47:57;;;;;;;21.70;14.57;;;;;;;;;;4996664;28;20038;-53
2022/03/18 05:50:23;;;;;;;20.70;13.18;;;;;;;;;;4995947;28;20030;-54
2022/03/18 05:52:49;;;;;;;18.42;12.07;;;;;;;;;;4995996;28;20080;-52
2022/03/18 05:55:15;;;;;;;24.10;14.15;;;;;;;;;;4995211;28;20494;-54
2022/03/18 05:57:41;;;;;;;26.20;14.07;;;;;;;;;;4995062;28;20050;-54
2022/03/18 06:00:08;;;;;;;24.30;15.70;;;;;;;;;;4995704;28;20026;-52
2022/03/18 06:02:34;;;;;;;28.80;16.52;;;;;;;;;;4995553;28;20080;-55
2022/03/18 06:05:00;;;;;;;30.95;16.45;;;;;;;;;;4994307;28;20080;-50
2022/03/18 06:07:26;;;;;;;29.60;17.85;;;;;;;;;;4993909;28;20038;-51
2022/03/18 06:12:37;;;;;;;33.35;15.38;;;;;;;;;;4995433;28;20093;-53
2022/03/18 06:15:04;;;;;;;36.63;16.95;;;;;;;;;;4995362;28;20380;-54
2022/03/18 06:17:30;;;;;;;39.53;18.00;;;;;;;;;;4994770;28;20027;-56
2022/03/18 06:19:56;;;;;;;37.58;20.50;;;;;;;;;;4995826;28;20097;-56
2022/03/18 06:22:22;;;;;;;45.65;21.77;;;;;;;;;;4995460;28;20533;-52
2022/03/18 06:24:48;;;;;;;31.70;16.42;;;;;;;;;;4995263;28;20089;-53
2022/03/18 06:27:15;;;;;;;23.77;14.82;;;;;;;;;;4995303;28;20360;-55
2022/03/18 06:29:43;;;;;;;24.90;13.38;;;;;;;;;;4995479;28;20113;-52
2022/03/18 06:32:09;;;;;;;23.05;13.93;;;;;;;;;;4995115;28;20102;-52
2022/03/18 06:34:35;;;;;;;20.95;12.13;;;;;;;;;;4995686;28;20101;-52
2022/03/18 06:37:01;;;;;;;29.08;16.85;;;;;;;;;;4995668;28;20088;-48
2022/03/18 06:39:28;;;;;;;23.60;12.00;;;;;;;;;;4994639;28;20489;-53
2022/03/18 06:41:56;;;;;;;18.10;11.13;;;;;;;;;;4992297;28;20029;-51
2022/03/18 06:44:22;;;;;;;20.10;11.55;;;;;;;;;;4994862;28;20026;-54
2022/03/18 06:46:48;;;;;;;20.30;9.88;;;;;;;;;;4995136;28;20407;-54
2022/03/18 06:49:15;;;;;;;18.67;10.52;;;;;;;;;;4994274;28;20030;-49
2022/03/18 06:51:41;;;;;;;20.30;11.93;;;;;;;;;;4994203;28;20368;-52
2022/03/18 06:54:08;;;;;;;20.17;11.15;;;;;;;;;;4995060;28;20030;-52
2022/03/18 06:56:38;;;;;;;18.33;10.48;;;;;;;;;;4994910;28;20077;-55
2022/03/18 06:59:04;;;;;;;17.00;9.52;;;;;;;;;;4994504;28;20121;-53
2022/03/18 07:01:31;;;;;;;22.38;13.45;;;;;;;;;;4992219;28;20022;-51
2022/03/18 07:03:57;;;;;;;38.22;20.58;;;;;;;;;;4993657;28;20034;-49
2022/03/18 07:06:23;;;;;;;27.02;15.05;;;;;;;;;;4993735;28;20036;-52
2022/03/18 07:08:49;;;;;;;18.77;10.95;;;;;;;;;;4994451;28;20030;-52
2022/03/18 07:11:15;;;;;;;19.15;10.55;;;;;;;;;;4994319;28;20072;-54
2022/03/18 07:13:43;;;;;;;18.50;11.20;;;;;;;;;;4994247;28;20101;-51
2022/03/18 07:18:54;;;;;;;16.48;9.85;;;;;;;;;;4994837;28;20057;-51
2022/03/18 07:21:20;;;;;;;19.85;10.52;;;;;;;;;;4994097;28;20498;-53
2022/03/18 07:23:47;;;;;;;24.35;14.02;;;;;;;;;;4994111;28;20027;-50
2022/03/18 07:26:13;;;;;;;32.40;17.30;;;;;;;;;;4994108;28;20035;-53
2022/03/18 07:28:39;;;;;;;38.30;21.23;;;;;;;;;;4994540;28;20034;-47
2022/03/18 07:31:05;;;;;;;32.60;19.38;;;;;;;;;;4994466;28;20084;-53
2022/03/18 07:33:31;;;;;;;24.70;13.23;;;;;;;;;;4993868;28;20490;-55
2022/03/18 07:35:58;;;;;;;25.35;13.73;;;;;;;;;;4994483;28;20041;-52
2022/03/18 07:38:24;;;;;;;24.38;13.07;;;;;;;;;;4994403;28;20026;-50
2022/03/18 07:40:50;;;;;;;22.98;11.45;;;;;;;;;;4993325;28;20062;-53
2022/03/18 07:43:16;;;;;;;26.77;16.42;;;;;;;;;;4994400;28;20499;-53
2022/03/18 07:45:42;;;;;;;19.67;12.18;;;;;;;;;;4994274;28;20030;-52
2022/03/18 07:48:09;;;;;;;21.65;13.00;;;;;;;;;;4993956;28;20023;-56
2022/03/18 07:50:37;;;;;;;21.38;10.55;;;;;;;;;;4994149;28;20034;-53
2022/03/18 07:53:05;;;;;;;19.70;11.00;;;;;;;;;;4994396;28;20019;-57
2022/03/18 07:55:32;;;;;;;15.98;9.48;;;;;;;;;;4994112;28;20096;-53
2022/03/18 07:57:59;;;;;;;17.73;11.00;;;;;;;;;;4994736;28;20105;-50
2022/03/18 08:00:26;;;;;;;21.45;11.45;;;;;;;;;;4994364;28;20471;-51
2022/03/18 08:02:53;;;;;;;22.05;12.15;;;;;;;;;;4993713;28;20037;-51
2022/03/18 08:05:20;;;;;;;22.55;12.40;;;;;;;;;;4994083;28;20029;-54
2022/03/18 08:07:49;;;;;;;29.08;11.25;;;;;;;;;;4994527;28;20065;-53
2022/03/18 08:10:17;;;;;;;22.00;12.18;;;;;;;;;;4992618;28;20061;-53
2022/03/18 08:12:44;;;;;;;18.98;10.65;;;;;;;;;;4992878;28;20023;-53
2022/03/18 08:15:16;;;;;;;18.58;12.25;;;;;;;;;;4992415;28;20030;-57
2022/03/18 08:17:43;;;;;;;21.42;11.85;;;;;;;;;;4992840;28;20056;-51
2022/03/18 08:20:11;;;;;;;17.20;9.88;;;;;;;;;;4993136;28;20019;-56
2022/03/18 08:22:37;;;;;;;18.25;11.68;;;;;;;;;;4993427;28;20070;-55
2022/03/18 08:25:04;;;;;;;16.35;10.25;;;;;;;;;;4994017;28;20023;-54
2022/03/18 08:27:32;;;;;;;20.08;12.05;;;;;;;;;;4993750;28;20026;-55
2022/03/18 08:29:59;;;;;;;20.90;12.05;;;;;;;;;;4992765;28;20113;-51
2022/03/18 08:32:26;;;;;;;16.92;10.18;;;;;;;;;;4988353;28;20464;-54
2022/03/18 08:34:52;;;;;;;20.55;11.18;;;;;;;;;;4990205;28;20026;-55
2022/03/18 08:40:04;;;;;;;18.90;9.88;;;;;;;;;;4992975;28;20034;-55
2022/03/18 08:42:31;;;;;;;18.17;11.30;;;;;;;;;;4993244;28;20026;-55
2022/03/18 08:44:57;;;;;;;25.60;15.68;;;;;;;;;;4993443;28;20048;-55
2022/03/18 08:47:24;;;;;;;29.85;16.15;;;;;;;;;;4993109;28;20027;-52
2022/03/18 08:49:50;;;;;;;22.90;12.48;;;;;;;;;;4993617;28;20038;-55
2022/03/18 08:52:16;;;;;;;18.35;10.82;;;;;;;;;;4996525;28;20025;-49
2022/03/18 08:54:44;;;;;;;35.03;19.17;;;;;;;;;;4996984;28;20128;-56
2022/03/18 08:57:10;;;;;;;24.25;13.35;;;;;;;;;;4996864;28;20046;-55
2022/03/18 08:59:36;;;;;;;23.17;13.75;;;;;;;;;;4997036;28;20026;-52
2022/03/18 09:02:03;;;;;;;22.63;14.00;;;;;;;;;;4996860;28;20400;-55
2022/03/18 09:04:29;;;;;;;19.90;11.77;;;;;;;;;;4996575;28;20699;-52
2022/03/18 09:06:55;;;;;;;22.33;11.77;;;;;;;;;;4996832;28;20034;-53
2022/03/18 09:09:21;;;;;;;17.98;11.60;;;;;;;;;;4996722;28;20064;-49
2022/03/18 09:11:47;;;;;;;21.63;12.43;;;;;;;;;;4996162;28;20072;-52
2022/03/18 09:14:14;;;;;;;17.73;12.02;;;;;;;;;;4996135;28;20018;-51
2022/03/18 09:16:40;;;;;;;18.75;11.63;;;;;;;;;;4996479;28;20023;-54
2022/03/18 09:19:06;;;;;;;21.23;13.57;;;;;;;;;;4996489;28;20054;-49
2022/03/18 09:21:33;;;;;;;17.77;11.48;;;;;;;;;;4996681;28;20055;-56
2022/03/18 09:23:59;;;;;;;20.17;11.95;;;;;;;;;;4996796;28;20038;-48
2022/03/18 09:26:25;;;;;;;23.60;13.45;;;;;;;;;;4994854;28;20378;-55
2022/03/18 09:28:51;;;;;;;21.85;13.48;;;;;;;;;;4996471;28;20027;-51
2022/03/18 09:31:17;;;;;;;17.27;11.05;;;;;;;;;;4996694;28;20033;-50
2022/03/18 09:33:46;;;;;;;18.98;12.73;;;;;;;;;;4996092;28;20113;-53
2022/03/18 09:36:12;;;;;;;20.20;12.68;;;;;;;;;;4994149;28;20030;-54
2022/03/18 09:38:38;;;;;;;13.88;9.63;;;;;;;;;;4994300;28;20028;-58
2022/03/18 09:41:07;;;;;;;12.23;8.40;;;;;;;;;;4994991;28;20093;-49
2022/03/18 09:43:34;;;;;;;14.18;8.75;;;;;;;;;;4996225;28;20049;-53
2022/03/18 09:46:02;;;;;;;13.77;8.30;;;;;;;;;;4996180;28;20503;-51
2022/03/18 09:48:29;;;;;;;15.32;10.30;;;;;;;;;;4995074;28;20053;-48
2022/03/18 09:50:55;;;;;;;16.95;10.45;;;;;;;;;;4995723;28;20541;-54
2022/03/18 09:53:22;;;;;;;15.73;8.80;;;;;;;;;;4995631;28;20472;-51
2022/03/18 09:55:51;;;;;;;14.13;9.38;;;;;;;;;;4996130;28;20037;-50
2022/03/18 09:58:17;;;;;;;16.02;10.00;;;;;;;;;;4995990;28;20042;-53
2022/03/18 10:00:43;;;;;;;12.43;7.72;;;;;;;;;;4995933;28;20034;-51
2022/03/18 10:03:16;;;;;;;12.43;8.82;;;;;;;;;;4995407;28;20018;-52
2022/03/18 10:06:03;;;;;;;14.82;8.50;;;;;;;;;;4995773;28;20113;-54
2022/03/18 10:08:44;;;;;;;11.82;8.18;;;;;;;;;;4995830;28;20030;-53
2022/03/18 10:11:18;;;;;;;12.50;8.15;;;;;;;;;;4995725;28;20476;-50
2022/03/18 10:13:55;;;;;;;13.45;9.38;;;;;;;;;;4996037;28;20483;-51
2022/03/18 10:16:39;;;;;;;16.38;9.90;;;;;;;;;;4995318;28;20423;-50
2022/03/18 10:19:18;;;;;;;13.85;9.30;;;;;;;;;;4995561;28;20076;-56
2022/03/18 10:22:05;;;;;;;12.90;8.68;;;;;;;;;;4995604;28;20022;-52
2022/03/18 10:24:36;;;;;;;13.65;9.10;;;;;;;;;;4995740;28;20105;-51
2022/03/18 10:27:11;;;;;;;13.93;9.02;;;;;;;;;;4995697;28;20056;-49
2022/03/18 10:29:46;;;;;;;14.63;8.63;;;;;;;;;;4995058;28;20027;-54
2022/03/18 10:32:13;;;;;;;10.02;7.30;;;;;;;;;;4995551;28;20031;-54
2022/03/18 10:37:25;;;;;;;9.48;6.78;;;;;;;;;;4995202;28;20452;-57
2022/03/18 10:39:58;;;;;;;11.75;7.60;;;;;;;;;;4995391;28;20053;-55
2022/03/18 10:42:24;;;;;;;11.50;7.63;;;;;;;;;;4995113;28;20494;-52
2022/03/18 10:44:52;;;;;;;12.35;8.25;;;;;;;;;;4995494;28;20080;-53
2022/03/18 10:47:26;;;;;;;13.43;7.70;;;;;;;;;;4995259;28;20027;-52
2022/03/18 10:49:54;;;;;;;14.57;9.00;;;;;;;;;;4994645;28;20023;-53
2022/03/18 10:52:23;;;;;;;12.68;7.95;;;;;;;;;;4995167;28;20463;-54
2022/03/18 10:54:51;;;;;;;9.68;6.68;;;;;;;;;;4995177;28;20022;-56
2022/03/18 10:57:17;;;;;;;10.25;7.10;;;;;;;;;;4994395;28;20054;-55
2022/03/18 10:59:43;;;;;;;11.70;8.45;;;;;;;;;;4994885;28;20022;-54
2022/03/18 11:02:14;;;;;;;13.13;8.63;;;;;;;;;;4995137;28;20081;-50
2022/03/18 11:04:41;;;;;;;14.02;8.68;;;;;;;;;;4994780;28;20026;-53
2022/03/18 11:12:38;;;;;;;17.95;13.07;;;;;;;;;;4995182;28;20045;-52
2022/03/18 11:15:05;;;;;;;15.43;10.63;;;;;;;;;;4994636;28;20460;-52
2022/03/18 11:17:32;;;;;;;13.00;8.95;;;;;;;;;;4994206;28;20031;-54
2022/03/18 11:20:01;;;;;;;14.30;9.80;;;;;;;;;;4994838;28;20032;-53
2022/03/18 11:22:28;;;;;;;15.00;10.10;;;;;;;;;;4994670;28;20054;-51
2022/03/18 11:24:54;;;;;;;15.98;9.00;;;;;;;;;;4994120;28;20060;-52
2022/03/18 11:27:21;;;;;;;16.33;10.77;;;;;;;;;;4994291;28;20494;-50
2022/03/18 11:29:47;;;;;;;20.63;14.63;;;;;;;;;;4994921;28;20038;-55
2022/03/18 11:32:14;;;;;;;12.18;9.07;;;;;;;;;;4994299;28;20019;-53
2022/03/18 11:34:46;;;;;;;14.35;10.10;;;;;;;;;;4994508;28;20033;-51
2022/03/18 11:37:12;;;;;;;12.00;7.72;;;;;;;;;;4995286;28;20026;-52
2022/03/18 11:39:38;;;;;;;14.48;9.35;;;;;;;;;;4994170;28;20044;-56
2022/03/18 11:42:07;;;;;;;17.48;14.38;;;;;;;;;;4994675;28;20367;-50
2022/03/18 11:44:36;;;;;;;13.07;9.48;;;;;;;;;;4994353;28;20026;-55
2022/03/18 11:47:21;;;;;;;22.40;17.83;;;;;;;;;;4993789;28;20038;-52
2022/03/18 11:49:48;;;;;;;17.20;10.38;;;;;;;;;;4994391;28;20029;-56
2022/03/18 11:52:14;;;;;;;12.02;8.52;;;;;;;;;;4993934;28;20030;-53
2022/03/18 11:55:01;;;;;;;10.55;7.85;;;;;;;;;;4994594;28;20041;-50
2022/03/18 11:57:34;;;;;;;12.55;9.05;;;;;;;;;;4994607;28;20140;-54
2022/03/18 12:00:20;;;;;;;11.18;8.48;;;;;;;;;;4994497;28;20031;-51
2022/03/18 12:02:46;;;;;;;11.88;7.43;;;;;;;;;;4993849;28;20026;-50
2022/03/18 12:05:18;;;;;;;13.35;8.65;;;;;;;;;;4994192;28;20415;-53
2022/03/18 12:07:48;;;;;;;12.02;8.43;;;;;;;;;;4994117;28;20439;-53
2022/03/18 12:10:15;;;;;;;11.75;8.13;;;;;;;;;;4994721;28;20023;-55
2022/03/18 12:12:48;;;;;;;13.90;9.63;;;;;;;;;;4994654;28;20023;-55
2022/03/18 12:15:19;;;;;;;14.38;8.98;;;;;;;;;;4993512;28;20027;-52
2022/03/18 12:17:52;;;;;;;13.63;9.25;;;;;;;;;;4994293;28;20130;-53
2022/03/18 12:20:22;;;;;;;21.73;13.43;;;;;;;;;;4992911;28;20023;-54
2022/03/18 12:22:50;;;;;;;16.03;10.13;;;;;;;;;;4993728;28;20420;-56
2022/03/18 12:25:16;;;;;;;23.48;15.45;;;;;;;;;;4993973;28;20109;-52
2022/03/18 12:27:44;;;;;;;21.85;14.20;;;;;;;;;;4997571;28;20014;-51
2022/03/18 12:30:10;;;;;;;35.45;21.40;;;;;;;;;;4998101;28;20022;-50
2022/03/18 12:32:40;;;;;;;19.65;12.98;;;;;;;;;;4998231;28;20048;-53
2022/03/18 12:35:07;;;;;;;14.95;9.73;;;;;;;;;;4997620;28;20037;-56
2022/03/18 12:37:34;;;;;;;17.27;13.48;;;;;;;;;;4997845;28;20025;-55
2022/03/18 12:40:10;;;;;;;15.52;11.73;;;;;;;;;;4997504;28;20026;-56
2022/03/18 12:42:49;;;;;;;18.60;12.70;;;;;;;;;;4997419;28;20027;-53
2022/03/18 12:45:42;;;;;;;14.98;10.40;;;;;;;;;;4997534;28;20026;-55
2022/03/18 12:48:09;;;;;;;15.73;9.77;;;;;;;;;;4996023;28;20027;-52
2022/03/18 12:50:40;;;;;;;12.05;9.05;;;;;;;;;;4997864;28;20455;-56
2022/03/18 12:53:11;;;;;;;14.38;9.10;;;;;;;;;;4997528;28;20029;-54
2022/03/18 12:55:37;;;;;;;13.60;9.40;;;;;;;;;;4997392;28;20081;-55
2022/03/18 12:58:04;;;;;;;20.27;14.23;;;;;;;;;;4997409;28;20046;-55
2022/03/18 13:00:39;;;;;;;25.67;17.95;;;;;;;;;;4997136;28;20028;-55
2022/03/18 13:03:06;;;;;;;54.30;34.60;;;;;;;;;;4997076;28;20375;-57
2022/03/18 13:05:33;;;;;;;17.73;11.50;;;;;;;;;;4997153;28;20117;-57
2022/03/18 13:08:05;;;;;;;35.40;24.02;;;;;;;;;;4996949;28;20030;-53
2022/03/18 13:10:31;;;;;;;24.65;18.60;;;;;;;;;;4996720;28;20026;-57
2022/03/18 13:13:13;;;;;;;31.48;21.92;;;;;;;;;;4996787;28;20037;-56
2022/03/18 13:15:47;;;;;;;20.00;13.85;;;;;;;;;;4997085;28;20541;-56
2022/03/18 13:18:15;;;;;;;37.33;26.42;;;;;;;;;;4996821;28;20030;-55
2022/03/18 13:20:42;;;;;;;22.63;17.50;;;;;;;;;;4996687;28;20065;-58
2022/03/18 13:23:11;;;;;;;26.77;19.73;;;;;;;;;;4996572;28;20018;-57
2022/03/18 13:25:40;;;;;;;12.60;9.15;;;;;;;;;;4996488;28;20502;-54
2022/03/18 13:28:08;;;;;;;8.27;6.40;;;;;;;;;;4996471;28;20033;-56
2022/03/18 13:33:20;;;;;;;28.05;21.67;;;;;;;;;;4996348;28;20037;-58
2022/03/18 13:35:48;;;;;;;11.48;8.27;;;;;;;;;;4996665;28;20057;-52
2022/03/18 13:38:19;;;;;;;15.93;10.98;;;;;;;;;;4995086;28;20110;-55
2022/03/18 13:41:02;;;;;;;10.10;7.88;;;;;;;;;;4996280;28;20031;-54
2022/03/18 13:43:31;;;;;;;31.33;23.58;;;;;;;;;;4996213;28;20027;-54
2022/03/18 13:46:10;;;;;;;20.60;13.52;;;;;;;;;;4994318;28;20414;-53
2022/03/18 13:48:36;;;;;;;18.13;12.73;;;;;;;;;;4993992;28;20027;-52
2022/03/18 13:51:06;;;;;;;14.15;10.18;;;;;;;;;;4994181;28;20094;-54
2022/03/18 13:53:32;;;;;;;11.82;7.60;;;;;;;;;;4993368;28;20026;-53
2022/03/18 13:55:59;;;;;;;17.13;12.10;;;;;;;;;;4993844;28;20022;-57
2022/03/18 13:58:31;;;;;;;13.15;9.90;;;;;;;;;;4994031;28;20466;-49
2022/03/18 14:01:07;;;;;;;13.70;9.93;;;;;;;;;;4995302;28;20105;-56
2022/03/18 14:03:34;;;;;;;22.30;13.65;;;;;;;;;;4995060;28;20046;-54
2022/03/18 14:06:01;;;;;;;18.38;12.20;;;;;;;;;;4994374;28;20361;-52
2022/03/18 14:08:30;;;;;;;21.25;13.23;;;;;;;;;;4995981;28;20023;-50
2022/03/18 14:11:00;;;;;;;25.20;17.30;;;;;;;;;;4995994;28;20034;-53
2022/03/18 14:13:31;;;;;;;17.42;12.50;;;;;;;;;;4995726;28;20353;-56
2022/03/18 14:15:58;;;;;;;20.27;12.50;;;;;;;;;;4995709;28;20076;-53
2022/03/18 14:18:24;;;;;;;20.90;13.07;;;;;;;;;;4995062;28;20030;-56
2022/03/18 14:20:53;;;;;;;16.20;10.00;;;;;;;;;;4994597;28;20034;-52
2022/03/18 14:23:21;;;;;;;17.48;12.32;;;;;;;;;;4994289;28;20050;-53
2022/03/18 14:25:47;;;;;;;20.50;14.50;;;;;;;;;;4988565;28;20039;-55
2022/03/18 14:28:17;;;;;;;16.52;11.48;;;;;;;;;;4975974;28;20022;-53
2022/03/18 14:30:43;;;;;;;13.95;8.70;;;;;;;;;;4976252;28;20023;-52
2022/03/18 14:33:10;;;;;;;15.73;9.25;;;;;;;;;;4975852;28;20082;-53
2022/03/18 14:35:36;;;;;;;14.98;9.68;;;;;;;;;;4975912;28;20026;-51
2022/03/18 14:38:03;;;;;;;13.75;8.85;;;;;;;;;;4974909;28;20033;-54
2022/03/18 14:40:29;;;;;;;22.05;13.02;;;;;;;;;;4975613;28;20117;-55
2022/03/18 14:42:55;;;;;;;19.30;10.65;;;;;;;;;;4976326;28;20103;-51
2022/03/18 14:45:22;;;;;;;16.92;11.70;;;;;;;;;;4974560;28;20023;-54
2022/03/18 14:47:48;;;;;;;17.65;10.00;;;;;;;;;;4975748;28;20027;-56
2022/03/18 14:50:15;;;;;;;13.43;8.73;;;;;;;;;;4975657;28;20031;-50
2022/03/18 14:52:42;;;;;;;24.55;12.95;;;;;;;;;;4974284;28;20044;-51